Time;durP1;ratioP1;P1;durP2;ratioP2;P2;SDS_P1;SDS_P2;PMS_P1;PMS_P2;Temp;Humidity;BMP_temperature;BMP_pressure;BME280_temperature;BME280_humidity;BME280_pressure;Samples;Min_cycle;Max_cycle;Signal;HPM_P1;HPM_P2
2022/12/14 00:01:07;;;;;;;25.13;22.30;;;-2.10;99.90;;;;;;5085197;28;20562;-69
2022/12/14 00:03:35;;;;;;;24.03;21.60;;;;;;;;;;5081289;28;20495;-69
2022/12/14 00:06:11;;;;;;;25.00;21.37;;;-2.00;99.90;;;;;;5078292;28;20651;-69
2022/12/14 00:08:38;;;;;;;22.97;20.67;;;-2.00;99.90;;;;;;5081555;28;20469;-69
2022/12/14 00:11:06;;;;;;;22.80;20.70;;;;;;;;;;5086174;28;20471;-69
2022/12/14 00:13:34;;;;;;;22.20;20.30;;;;;;;;;;5081926;28;20498;-70
2022/12/14 00:16:05;;;;;;;23.93;21.83;;;;;;;;;;5081053;28;20467;-70
2022/12/14 00:18:33;;;;;;;21.70;19.77;;;;;;;;;;5073760;28;20502;-69
2022/12/14 00:21:03;;;;;;;22.13;19.90;;;;;;;;;;5080988;28;20459;-69
2022/12/14 00:23:31;;;;;;;22.43;20.03;;;;;;;;;;5084758;28;20459;-69
2022/12/14 00:25:58;;;;;;;21.97;20.03;;;;;;;;;;5080328;28;20747;-69
2022/12/14 00:28:26;;;;;;;22.63;20.37;;;-1.80;99.90;;;;;;5079318;28;20985;-69
2022/12/14 00:30:57;;;;;;;22.30;20.20;;;;;;;;;;5076766;28;20478;-69
2022/12/14 00:33:24;;;;;;;22.50;20.50;;;-1.80;99.90;;;;;;5081421;28;20557;-70
2022/12/14 00:35:51;;;;;;;24.50;22.00;;;;;;;;;;5083684;28;20468;-69
2022/12/14 00:38:18;;;;;;;23.10;21.07;;;;;;;;;;5080340;28;20486;-69
2022/12/14 00:40:45;;;;;;;25.30;21.40;;;-1.80;99.90;;;;;;5077392;28;20530;-69
2022/12/14 00:43:12;;;;;;;21.80;20.00;;;-1.80;99.90;;;;;;5079782;28;20472;-69
2022/12/14 00:45:43;;;;;;;21.87;20.20;;;-1.80;99.90;;;;;;5082485;28;20489;-69
2022/12/14 00:48:10;;;;;;;23.10;21.10;;;;;;;;;;5078249;28;20908;-69
2022/12/14 00:50:37;;;;;;;23.40;21.30;;;;;;;;;;5077313;28;21027;-69
2022/12/14 00:53:04;;;;;;;23.30;20.90;;;-1.70;99.90;;;;;;5073675;28;20976;-69
2022/12/14 00:55:31;;;;;;;22.53;20.53;;;;;;;;;;5077877;28;20492;-69
2022/12/14 00:57:59;;;;;;;22.13;20.20;;;;;;;;;;5079232;28;20823;-69
2022/12/14 01:00:26;;;;;;;22.90;20.87;;;;;;;;;;5076619;28;20535;-70
2022/12/14 01:02:54;;;;;;;21.80;20.10;;;-1.70;99.90;;;;;;5079892;28;20538;-70
2022/12/14 01:05:21;;;;;;;21.43;19.63;;;-1.70;99.90;;;;;;5074896;28;20518;-69
2022/12/14 01:07:48;;;;;;;21.03;19.50;;;-1.70;99.90;;;;;;5079572;28;20459;-69
2022/12/14 01:10:15;;;;;;;21.80;19.80;;;-1.70;99.90;;;;;;5079369;28;20462;-69
2022/12/14 01:12:42;;;;;;;24.60;20.67;;;;;;;;;;5079028;28;20467;-69
2022/12/14 01:15:10;;;;;;;22.43;20.53;;;-1.70;99.90;;;;;;5082204;28;21094;-69
2022/12/14 01:17:37;;;;;;;21.93;20.03;;;;;;;;;;5079572;28;20484;-69
2022/12/14 01:20:06;;;;;;;21.80;19.90;;;;;;;;;;5078687;28;20464;-70
2022/12/14 01:22:33;;;;;;;21.93;20.13;;;-1.70;99.90;;;;;;5077339;28;20477;-69
2022/12/14 01:25:00;;;;;;;22.80;20.80;;;;;;;;;;5079250;28;20456;-69
2022/12/14 01:27:27;;;;;;;21.53;19.90;;;;;;;;;;5079589;28;20461;-69
2022/12/14 01:29:54;;;;;;;22.00;20.07;;;;;;;;;;5083600;28;20482;-69
2022/12/14 01:32:21;;;;;;;22.90;20.60;;;-1.70;99.90;;;;;;5081612;28;20507;-69
2022/12/14 01:34:48;;;;;;;21.57;19.53;;;;;;;;;;5078840;28;20816;-70
2022/12/14 01:37:16;;;;;;;21.60;19.80;;;-1.70;99.90;;;;;;5080197;28;20472;-69
2022/12/14 01:39:43;;;;;;;21.27;19.53;;;-1.70;99.90;;;;;;5081130;28;20868;-69
2022/12/14 01:42:13;;;;;;;21.77;19.77;;;-1.70;99.90;;;;;;5080479;28;20904;-69
2022/12/14 01:44:57;;;;;;;23.60;21.30;;;;;;;;;;5081003;28;20563;-70
2022/12/14 01:47:29;;;;;;;21.83;19.90;;;;;;;;;;5085593;28;20462;-70
2022/12/14 01:50:02;;;;;;;21.37;19.77;;;-1.70;99.90;;;;;;5073877;28;20983;-70
2022/12/14 01:52:36;;;;;;;21.17;19.43;;;-1.80;99.90;;;;;;5077234;28;20488;-68
2022/12/14 01:55:07;;;;;;;19.87;18.27;;;-1.80;99.90;;;;;;5076407;28;20849;-68
2022/12/14 01:57:41;;;;;;;21.13;19.27;;;-1.90;99.90;;;;;;5081231;28;20978;-69
2022/12/14 02:00:12;;;;;;;21.60;19.23;;;-1.90;99.90;;;;;;5081863;28;21054;-69
2022/12/14 02:02:41;;;;;;;23.27;20.93;;;-2.00;99.90;;;;;;5081798;28;20513;-69
2022/12/14 02:05:10;;;;;;;21.00;19.23;;;-2.00;99.90;;;;;;5084038;28;20500;-69
2022/12/14 02:07:40;;;;;;;22.80;20.70;;;-2.00;99.90;;;;;;5075164;28;20460;-69
2022/12/14 02:10:09;;;;;;;20.93;19.43;;;-2.00;99.90;;;;;;5079355;28;20880;-68
2022/12/14 02:12:41;;;;;;;21.67;19.93;;;-2.00;99.90;;;;;;5076118;28;20467;-68
2022/12/14 02:15:09;;;;;;;21.37;19.53;;;-2.00;99.90;;;;;;5082102;28;20460;-69
2022/12/14 02:17:36;;;;;;;21.60;19.70;;;-2.00;99.90;;;;;;5073045;28;20454;-69
2022/12/14 02:20:04;;;;;;;21.13;19.20;;;-2.00;99.90;;;;;;5079962;28;20468;-69
2022/12/14 02:23:03;;;;;;;21.90;19.80;;;-2.00;99.90;;;;;;5073953;28;20460;-70
2022/12/14 02:26:06;;;;;;;20.73;18.93;;;-2.00;99.90;;;;;;5076185;28;20506;-69
2022/12/14 02:29:03;;;;;;;22.80;20.40;;;-2.00;99.90;;;;;;5078146;28;20479;-69
2022/12/14 02:31:39;;;;;;;21.67;19.87;;;-2.00;99.90;;;;;;5080776;28;20465;-69
2022/12/14 02:34:10;;;;;;;22.77;20.90;;;-2.00;99.90;;;;;;5076328;28;20846;-69
2022/12/14 02:36:43;;;;;;;21.90;20.13;;;-1.90;99.90;;;;;;5084569;28;20850;-69
2022/12/14 02:39:20;;;;;;;21.57;19.67;;;-1.90;99.90;;;;;;5074047;28;20505;-70
2022/12/14 02:42:00;;;;;;;20.53;19.00;;;-1.90;99.90;;;;;;5082266;28;20450;-69
2022/12/14 02:44:35;;;;;;;20.60;18.90;;;-2.00;99.90;;;;;;5081399;28;20848;-69
2022/12/14 02:47:08;;;;;;;22.50;19.30;;;-2.00;99.90;;;;;;5078450;28;20973;-70
2022/12/14 02:49:49;;;;;;;19.17;17.60;;;-2.00;99.90;;;;;;5077327;28;20490;-69
2022/12/14 02:52:25;;;;;;;19.73;18.23;;;-2.00;99.90;;;;;;5074987;28;20499;-69
2022/12/14 02:54:57;;;;;;;19.57;17.77;;;-2.00;99.90;;;;;;5073998;28;20569;-69
2022/12/14 02:57:29;;;;;;;20.67;19.07;;;-2.00;99.90;;;;;;5077999;28;20974;-69
2022/12/14 03:00:00;;;;;;;20.03;18.20;;;-2.00;99.90;;;;;;5078108;28;20486;-69
2022/12/14 03:02:30;;;;;;;21.67;19.63;;;-2.00;99.90;;;;;;5076211;28;20505;-69
2022/12/14 03:04:58;;;;;;;19.50;17.90;;;-2.00;99.90;;;;;;5076376;28;20487;-69
2022/12/14 03:07:34;;;;;;;20.90;19.00;;;;;;;;;;5073817;28;20470;-69
2022/12/14 03:10:06;;;;;;;20.53;18.67;;;-2.00;99.90;;;;;;5075184;28;20584;-69
2022/12/14 03:12:34;;;;;;;20.30;18.47;;;;;;;;;;5075061;28;20500;-69
2022/12/14 03:15:03;;;;;;;20.60;18.90;;;-1.90;99.90;;;;;;5071658;28;20480;-69
2022/12/14 03:17:34;;;;;;;20.73;19.03;;;;;;;;;;5078086;28;20461;-69
2022/12/14 03:20:05;;;;;;;21.77;18.90;;;-1.90;99.90;;;;;;5080228;28;20482;-69
2022/12/14 03:22:38;;;;;;;22.10;18.87;;;-1.90;99.90;;;;;;5075968;28;20459;-69
2022/12/14 03:25:11;;;;;;;20.87;18.70;;;-1.90;99.90;;;;;;5073385;28;20473;-69
2022/12/14 03:27:43;;;;;;;20.87;19.10;;;-1.90;99.90;;;;;;5070339;28;20463;-69
2022/12/14 03:30:14;;;;;;;21.83;19.67;;;-1.90;99.90;;;;;;5080495;28;20463;-69
2022/12/14 03:32:46;;;;;;;21.73;19.70;;;-1.90;99.90;;;;;;5078525;28;21010;-69
2022/12/14 03:35:17;;;;;;;21.83;19.90;;;-2.00;99.90;;;;;;5076442;28;20462;-69
2022/12/14 03:37:51;;;;;;;20.50;18.90;;;-2.00;99.90;;;;;;5080197;28;20467;-69
2022/12/14 03:40:18;;;;;;;21.40;19.70;;;-2.00;99.90;;;;;;5075676;28;20585;-69
2022/12/14 03:42:53;;;;;;;21.50;19.70;;;-2.00;99.90;;;;;;5073736;28;20462;-69
2022/12/14 03:45:24;;;;;;;20.43;18.77;;;-2.00;99.90;;;;;;5070024;28;20773;-69
2022/12/14 03:48:01;;;;;;;20.47;18.63;;;-1.90;99.90;;;;;;5078558;28;20462;-69
2022/12/14 03:50:33;;;;;;;21.40;19.47;;;-1.90;99.90;;;;;;5078242;28;20465;-69
2022/12/14 03:53:05;;;;;;;21.57;19.87;;;-1.90;99.90;;;;;;5083550;28;20464;-69
2022/12/14 03:55:41;;;;;;;22.13;20.00;;;-1.90;99.90;;;;;;5079287;28;20484;-69
2022/12/14 03:58:24;;;;;;;21.63;19.93;;;-1.90;99.90;;;;;;5077301;28;20549;-69
2022/12/14 04:00:57;;;;;;;22.57;20.57;;;-1.90;99.90;;;;;;5070571;28;20466;-69
2022/12/14 04:03:34;;;;;;;21.30;19.47;;;-1.90;99.90;;;;;;5079008;28;20665;-69
2022/12/14 04:06:08;;;;;;;22.37;20.27;;;-1.80;99.90;;;;;;5080094;28;20468;-70
2022/12/14 04:08:42;;;;;;;21.50;19.63;;;-1.80;99.90;;;;;;5070689;28;20529;-69
2022/12/14 04:19:41;;;;;;;20.27;18.47;;;-1.80;99.90;;;;;;5070732;28;20542;-69
2022/12/14 04:22:12;;;;;;;22.60;20.47;;;-1.80;99.90;;;;;;5076220;28;20467;-69
2022/12/14 04:27:36;;;;;;;22.13;20.23;;;-1.80;99.90;;;;;;5071487;28;20454;-69
2022/12/14 04:30:05;;;;;;;22.67;20.60;;;-1.80;99.90;;;;;;5069380;28;20450;-69
2022/12/14 04:32:35;;;;;;;22.30;20.40;;;-1.80;99.90;;;;;;5074700;28;20482;-69
2022/12/14 04:35:09;;;;;;;30.07;20.97;;;-1.80;99.90;;;;;;5077893;28;20468;-70
2022/12/14 04:37:37;;;;;;;22.37;19.97;;;;;;;;;;5078288;28;20719;-70
2022/12/14 04:40:06;;;;;;;21.13;19.47;;;;;;;;;;5082100;28;20503;-69
2022/12/14 04:42:35;;;;;;;21.47;19.60;;;-1.80;99.90;;;;;;5078906;28;20455;-69
2022/12/14 04:45:07;;;;;;;21.97;20.23;;;-1.70;99.90;;;;;;5078140;28;20538;-69
2022/12/14 04:47:40;;;;;;;21.50;19.43;;;-1.70;99.90;;;;;;5083970;28;20833;-69
2022/12/14 04:50:17;;;;;;;21.87;20.00;;;-1.70;99.90;;;;;;5083874;28;20533;-69
2022/12/14 04:52:48;;;;;;;22.10;20.07;;;-1.70;99.90;;;;;;5080546;28;20982;-69
2022/12/14 04:55:21;;;;;;;22.17;20.00;;;-1.70;99.90;;;;;;5079034;28;20487;-69
2022/12/14 04:57:53;;;;;;;21.37;19.70;;;-1.70;99.90;;;;;;5077265;28;20491;-70
2022/12/14 05:00:20;;;;;;;22.27;20.30;;;-1.70;99.90;;;;;;5080746;28;20539;-69
2022/12/14 05:03:08;;;;;;;23.50;19.30;;;-1.70;99.90;;;;;;5080175;28;20544;-69
2022/12/14 05:05:47;;;;;;;22.03;19.87;;;-1.70;99.90;;;;;;5073883;28;20865;-69
2022/12/14 05:08:23;;;;;;;22.43;20.37;;;-1.70;99.90;;;;;;5085418;28;20489;-69
2022/12/14 05:10:52;;;;;;;22.73;20.80;;;;;;;;;;5082162;28;20518;-69
2022/12/14 05:13:22;;;;;;;22.37;20.30;;;;;;;;;;5079526;28;20469;-69
2022/12/14 05:15:52;;;;;;;22.50;20.30;;;-1.60;99.90;;;;;;5079829;28;20462;-69
2022/12/14 05:18:19;;;;;;;22.93;21.03;;;-1.60;99.90;;;;;;5076059;28;20484;-69
2022/12/14 05:20:48;;;;;;;24.60;22.13;;;-1.70;99.90;;;;;;5082612;28;20517;-70
2022/12/14 05:23:17;;;;;;;22.37;20.10;;;-1.70;99.90;;;;;;5086785;28;20464;-69
2022/12/14 05:25:44;;;;;;;23.33;20.90;;;-1.60;99.90;;;;;;5075801;28;20464;-69
2022/12/14 05:28:12;;;;;;;22.77;20.77;;;-1.70;99.90;;;;;;5075701;28;20469;-69
2022/12/14 05:30:39;;;;;;;21.83;20.20;;;-1.60;99.90;;;;;;5071720;28;20473;-69
2022/12/14 05:33:06;;;;;;;23.00;21.00;;;-1.60;99.90;;;;;;5083817;28;20816;-69
2022/12/14 05:35:33;;;;;;;23.20;21.07;;;;;;;;;;5083400;28;20459;-69
2022/12/14 05:38:01;;;;;;;21.50;19.73;;;-1.60;99.90;;;;;;5078152;28;20468;-69
2022/12/14 05:40:28;;;;;;;23.07;20.83;;;-1.60;99.90;;;;;;5081342;28;20497;-69
2022/12/14 05:43:04;;;;;;;22.43;19.73;;;-1.60;99.90;;;;;;5080276;28;20816;-69
2022/12/14 05:45:31;;;;;;;22.47;20.37;;;-1.60;99.90;;;;;;5075744;28;20463;-69
2022/12/14 05:47:57;;;;;;;23.47;21.00;;;-1.60;99.90;;;;;;5075897;28;20470;-69
2022/12/14 05:50:25;;;;;;;27.27;21.63;;;-1.60;99.90;;;;;;5080815;28;20455;-69
2022/12/14 05:52:52;;;;;;;23.80;21.63;;;-1.50;99.90;;;;;;5073788;28;20463;-70
2022/12/14 05:55:21;;;;;;;22.10;20.10;;;-1.50;99.90;;;;;;5078567;28;20514;-69
2022/12/14 05:57:47;;;;;;;22.33;20.53;;;-1.50;99.90;;;;;;5074579;28;20464;-69
2022/12/14 06:00:15;;;;;;;24.83;21.57;;;;;;;;;;5075559;28;21066;-69
2022/12/14 06:02:42;;;;;;;24.10;21.90;;;;;;;;;;5079017;28;20476;-69
2022/12/14 06:05:09;;;;;;;23.43;21.33;;;;;;;;;;5074306;28;20508;-69
2022/12/14 06:07:36;;;;;;;23.33;21.07;;;-1.40;99.90;;;;;;5074973;28;20569;-69
2022/12/14 06:10:03;;;;;;;23.43;21.53;;;-1.40;99.90;;;;;;5077144;28;20468;-69
2022/12/14 06:12:32;;;;;;;22.57;20.63;;;-1.40;99.90;;;;;;5078137;28;20916;-69
2022/12/14 06:14:58;;;;;;;28.43;19.33;;;-1.40;99.90;;;;;;5078196;28;20458;-69
2022/12/14 06:17:25;;;;;;;32.93;23.13;;;-1.50;99.90;;;;;;5078865;28;20460;-69
2022/12/14 06:19:52;;;;;;;22.50;20.50;;;-1.50;99.90;;;;;;5076957;28;20488;-69
2022/12/14 06:22:19;;;;;;;23.10;20.83;;;-1.50;99.90;;;;;;5073557;28;20461;-69
2022/12/14 06:24:46;;;;;;;23.97;21.53;;;;;;;;;;5080918;28;20634;-69
2022/12/14 06:27:13;;;;;;;25.83;21.83;;;;;;;;;;5078028;28;20469;-69
2022/12/14 06:29:42;;;;;;;26.60;21.67;;;;;;;;;;5079206;28;20461;-69
2022/12/14 06:32:09;;;;;;;23.87;21.70;;;-1.40;99.90;;;;;;5080659;28;20833;-69
2022/12/14 06:34:36;;;;;;;29.93;23.33;;;;;;;;;;5081085;28;20462;-69
2022/12/14 06:37:05;;;;;;;24.83;22.47;;;-1.50;99.90;;;;;;5084575;28;20468;-69
2022/12/14 06:39:31;;;;;;;25.00;22.50;;;-1.40;99.90;;;;;;5074299;28;20593;-69
2022/12/14 06:41:59;;;;;;;24.13;22.13;;;;;;;;;;5071510;28;20468;-69
2022/12/14 06:44:25;;;;;;;25.77;22.03;;;-1.50;99.90;;;;;;5072680;28;20969;-69
2022/12/14 06:46:54;;;;;;;25.20;22.57;;;-1.50;99.90;;;;;;5082370;28;20462;-69
2022/12/14 06:49:21;;;;;;;22.73;20.73;;;-1.50;99.90;;;;;;5072588;28;20471;-69
2022/12/14 06:51:50;;;;;;;21.80;19.80;;;-1.40;99.90;;;;;;5075838;28;20893;-69
2022/12/14 06:54:18;;;;;;;23.17;21.00;;;-1.40;99.90;;;;;;5070291;28;20474;-69
2022/12/14 06:56:46;;;;;;;27.97;21.20;;;-1.50;99.90;;;;;;5077408;28;20464;-69
2022/12/14 06:59:14;;;;;;;36.23;23.00;;;-1.50;99.90;;;;;;5080974;28;21020;-69
2022/12/14 07:01:42;;;;;;;28.53;21.83;;;-1.50;99.90;;;;;;5085443;28;20462;-70
2022/12/14 07:04:11;;;;;;;25.00;21.50;;;-1.50;99.90;;;;;;5083779;28;20516;-70
2022/12/14 07:06:39;;;;;;;21.90;19.73;;;-1.50;99.90;;;;;;5078789;28;20472;-69
2022/12/14 07:09:07;;;;;;;23.33;20.90;;;-1.50;99.90;;;;;;5077138;28;20466;-69
2022/12/14 07:11:34;;;;;;;22.77;20.80;;;-1.50;99.90;;;;;;5077420;28;20479;-69
2022/12/14 07:14:04;;;;;;;23.63;21.30;;;-1.50;99.90;;;;;;5078096;28;20511;-69
2022/12/14 07:16:32;;;;;;;23.37;20.80;;;-1.50;99.90;;;;;;5075631;28;20544;-70
2022/12/14 07:19:00;;;;;;;24.47;21.17;;;-1.50;99.90;;;;;;5080326;28;20477;-69
2022/12/14 07:21:29;;;;;;;25.00;22.30;;;-1.60;99.90;;;;;;5080718;28;20516;-69
2022/12/14 07:23:55;;;;;;;23.97;21.13;;;-1.60;99.90;;;;;;5076743;28;20549;-69
2022/12/14 07:26:24;;;;;;;23.60;21.17;;;-1.60;99.90;;;;;;5075512;28;20567;-69
2022/12/14 07:28:52;;;;;;;24.37;21.90;;;-1.60;99.90;;;;;;5079428;28;20467;-70
2022/12/14 07:31:21;;;;;;;23.47;21.27;;;-1.70;99.90;;;;;;5081688;28;20492;-70
2022/12/14 07:33:49;;;;;;;22.33;20.37;;;-1.60;99.90;;;;;;5071825;28;21139;-70
2022/12/14 07:36:17;;;;;;;30.23;21.60;;;-1.70;99.90;;;;;;5079187;28;20459;-70
2022/12/14 07:38:47;;;;;;;22.57;20.47;;;-1.70;99.90;;;;;;5077928;28;20930;-70
2022/12/14 07:41:16;;;;;;;23.43;21.07;;;-1.60;99.90;;;;;;5079240;28;20494;-70
2022/12/14 07:43:44;;;;;;;26.70;22.13;;;-1.60;99.90;;;;;;5077948;28;20465;-70
2022/12/14 07:46:14;;;;;;;23.87;21.40;;;-1.50;99.90;;;;;;5077303;28;20472;-70
2022/12/14 07:48:43;;;;;;;21.13;19.17;;;;;;;;;;5075870;28;20476;-70
2022/12/14 07:51:12;;;;;;;27.27;22.63;;;;;;;;;;5071946;28;20464;-70
2022/12/14 07:53:39;;;;;;;26.93;20.83;;;-1.40;99.90;;;;;;5073885;28;20848;-70
2022/12/14 07:56:10;;;;;;;24.00;21.50;;;-1.40;99.90;;;;;;5083432;28;20484;-70
2022/12/14 07:58:37;;;;;;;24.40;21.90;;;-1.40;99.90;;;;;;5082597;28;20460;-70
2022/12/14 08:01:10;;;;;;;23.67;21.47;;;-1.40;99.90;;;;;;5078842;28;20759;-70
2022/12/14 08:03:37;;;;;;;29.67;23.93;;;-1.40;99.90;;;;;;5070762;28;20457;-70
2022/12/14 08:06:05;;;;;;;30.00;22.90;;;-1.30;99.90;;;;;;5081674;28;20471;-70
2022/12/14 08:08:33;;;;;;;23.80;21.80;;;;;;;;;;5084601;28;20463;-70
2022/12/14 08:11:00;;;;;;;23.93;21.53;;;;;;;;;;5084428;28;20464;-70
2022/12/14 08:13:29;;;;;;;29.77;22.13;;;;;;;;;;5088924;28;21036;-70
2022/12/14 08:15:56;;;;;;;25.67;22.73;;;-1.30;99.90;;;;;;5090148;28;21018;-71
2022/12/14 08:18:23;;;;;;;31.83;22.03;;;-1.00;99.90;;;;;;5080247;28;20571;-70
2022/12/14 08:20:50;;;;;;;24.53;22.13;;;-0.90;99.90;;;;;;5089245;28;20843;-71
2022/12/14 08:23:17;;;;;;;23.97;21.60;;;-0.90;99.90;;;;;;5080064;28;20472;-70
2022/12/14 08:25:45;;;;;;;24.97;21.73;;;-0.80;99.90;;;;;;5084057;28;20476;-70
2022/12/14 08:28:12;;;;;;;26.80;23.07;;;-0.80;99.90;;;;;;5078635;28;20459;-71
2022/12/14 08:30:43;;;;;;;25.33;22.60;;;-0.80;99.90;;;;;;5081928;28;20519;-70
2022/12/14 08:33:13;;;;;;;23.70;21.40;;;;;;;;;;5075471;28;20470;-69
2022/12/14 08:35:40;;;;;;;24.57;22.33;;;;;;;;;;5088508;28;20468;-69
2022/12/14 08:38:09;;;;;;;24.03;21.77;;;;;;;;;;5086030;28;20471;-69
2022/12/14 08:40:36;;;;;;;27.87;22.70;;;;;;;;;;5079858;28;20485;-69
2022/12/14 08:43:04;;;;;;;25.93;21.90;;;-0.70;99.90;;;;;;5080591;28;20735;-69
2022/12/14 08:45:30;;;;;;;25.00;22.50;;;-0.60;99.90;;;;;;5076692;28;20478;-69
2022/12/14 08:47:59;;;;;;;27.43;22.90;;;-0.60;99.90;;;;;;5083024;28;20575;-70
2022/12/14 08:50:28;;;;;;;23.93;21.63;;;-0.50;99.90;;;;;;5081629;28;20697;-69
2022/12/14 08:52:55;;;;;;;24.80;22.27;;;-0.50;99.90;;;;;;5082083;28;20999;-69
2022/12/14 08:55:22;;;;;;;24.17;21.77;;;-0.40;99.90;;;;;;5082762;28;21038;-69
2022/12/14 08:57:50;;;;;;;26.40;23.83;;;-0.30;99.90;;;;;;5081647;28;20469;-69
2022/12/14 09:00:17;;;;;;;40.47;23.50;;;-0.10;99.90;;;;;;5087626;28;20482;-70
2022/12/14 09:02:45;;;;;;;26.30;23.10;;;;;;;;;;5078085;28;20515;-69
2022/12/14 09:05:13;;;;;;;25.70;23.23;;;;;;;;;;5081096;28;20494;-69
2022/12/14 09:07:40;;;;;;;26.50;23.90;;;;;;;;;;5081577;28;20535;-70
2022/12/14 09:10:08;;;;;;;25.90;23.40;;;;;;;;;;5076028;28;20548;-69
2022/12/14 09:12:35;;;;;;;25.43;22.93;;;0.00;99.90;;;;;;5081428;28;20549;-69
2022/12/14 09:15:02;;;;;;;26.10;23.40;;;0.00;99.90;;;;;;5086073;28;20464;-69
2022/12/14 09:17:29;;;;;;;25.97;23.17;;;0.00;99.90;;;;;;5079158;28;20848;-69
2022/12/14 09:19:56;;;;;;;25.97;22.97;;;0.20;99.90;;;;;;5084547;28;20879;-69
2022/12/14 09:22:25;;;;;;;26.70;24.00;;;0.00;99.90;;;;;;5086091;28;20876;-69
2022/12/14 09:24:52;;;;;;;29.53;23.23;;;0.20;99.90;;;;;;5099186;28;20473;-69
2022/12/14 09:27:20;;;;;;;35.53;25.07;;;0.30;99.90;;;;;;5078983;28;20491;-69
2022/12/14 09:29:48;;;;;;;25.83;23.43;;;0.40;99.90;;;;;;5085278;28;20833;-69
2022/12/14 09:32:15;;;;;;;31.93;23.70;;;0.40;99.90;;;;;;5081702;28;20991;-69
2022/12/14 09:34:41;;;;;;;25.80;23.50;;;0.40;99.90;;;;;;5087672;28;21067;-69
2022/12/14 09:37:09;;;;;;;26.10;23.10;;;;;;;;;;5090066;28;20887;-69
2022/12/14 09:39:37;;;;;;;24.07;22.03;;;;;;;;;;5080097;28;20497;-69
2022/12/14 09:42:19;;;;;;;28.97;24.00;;;0.60;99.90;;;;;;5093350;28;20493;-69
2022/12/14 09:44:57;;;;;;;26.93;23.93;;;0.80;99.90;;;;;;5089970;28;20456;-69
2022/12/14 09:47:28;;;;;;;25.90;23.10;;;0.90;99.90;;;;;;5083908;28;20493;-69
2022/12/14 09:50:00;;;;;;;25.57;22.97;;;0.90;99.90;;;;;;5083618;28;20481;-69
2022/12/14 09:52:35;;;;;;;25.87;23.57;;;0.90;99.90;;;;;;5082851;28;20465;-69
2022/12/14 09:55:06;;;;;;;25.93;23.73;;;;;;;;;;5084972;28;20779;-69
2022/12/14 09:57:35;;;;;;;25.90;23.30;;;;;;;;;;5091221;28;20467;-69
2022/12/14 10:00:02;;;;;;;24.97;22.67;;;0.50;99.90;;;;;;5085508;28;20698;-69
2022/12/14 10:02:40;;;;;;;29.93;23.20;;;0.80;99.90;;;;;;5078186;28;20473;-69
2022/12/14 10:05:24;;;;;;;23.67;21.37;;;0.70;99.90;;;;;;5079746;28;20485;-69
2022/12/14 10:08:00;;;;;;;26.37;22.77;;;0.90;99.90;;;;;;5075836;28;20516;-69
2022/12/14 10:10:36;;;;;;;26.27;23.73;;;1.00;99.90;;;;;;5074963;28;20474;-69
2022/12/14 10:13:06;;;;;;;26.43;23.83;;;;;;;;;;5082013;28;20588;-69
2022/12/14 10:15:38;;;;;;;33.17;23.73;;;;;;;;;;5078374;28;20857;-70
2022/12/14 10:18:14;;;;;;;28.93;23.43;;;;;;;;;;5079383;28;20472;-69
2022/12/14 10:20:47;;;;;;;32.93;23.37;;;;;;;;;;5075943;28;20481;-70
2022/12/14 10:23:15;;;;;;;26.17;23.70;;;;;;;;;;5072849;28;20451;-70
2022/12/14 10:25:45;;;;;;;28.63;23.67;;;;;;;;;;5077628;28;20461;-70
2022/12/14 10:28:14;;;;;;;27.67;24.60;;;;;;;;;;5080337;28;20531;-69
2022/12/14 10:30:43;;;;;;;28.23;25.47;;;;;;;;;;5085348;28;20466;-69
2022/12/14 10:33:14;;;;;;;24.90;22.50;;;;;;;;;;5075552;28;20907;-69
2022/12/14 10:35:44;;;;;;;27.43;23.80;;;;;;;;;;5082554;28;20465;-69
2022/12/14 10:38:18;;;;;;;26.30;23.93;;;;;;;;;;5079107;28;20465;-69
2022/12/14 10:40:49;;;;;;;25.43;22.87;;;;;;;;;;5071946;28;20487;-69
2022/12/14 10:43:25;;;;;;;25.03;22.97;;;;;;;;;;5077137;28;21052;-69
2022/12/14 10:45:58;;;;;;;27.67;24.97;;;;;;;;;;5075640;28;20976;-69
2022/12/14 10:48:41;;;;;;;27.90;25.17;;;;;;;;;;5079217;28;20469;-69
2022/12/14 10:51:11;;;;;;;27.90;25.07;;;2.10;99.90;;;;;;5081482;28;20461;-69
2022/12/14 10:53:43;;;;;;;27.73;25.17;;;2.10;99.90;;;;;;5076102;28;21387;-69
2022/12/14 10:56:15;;;;;;;31.07;26.07;;;;;;;;;;5080060;28;20486;-68
2022/12/14 10:58:41;;;;;;;27.50;24.90;;;2.20;99.90;;;;;;5078298;28;20530;-69
2022/12/14 11:01:13;;;;;;;32.30;25.27;;;2.30;99.90;;;;;;5077533;28;20478;-69
2022/12/14 11:03:42;;;;;;;29.60;25.80;;;2.20;99.90;;;;;;5089055;28;20485;-68
2022/12/14 11:06:14;;;;;;;43.30;35.10;;;2.30;99.90;;;;;;5087437;28;20782;-68
2022/12/14 11:08:44;;;;;;;37.73;26.27;;;2.40;99.90;;;;;;5085192;28;20465;-68
2022/12/14 11:11:16;;;;;;;29.13;26.20;;;2.60;99.90;;;;;;5076831;28;21012;-68
2022/12/14 11:13:54;;;;;;;28.33;25.70;;;2.70;99.90;;;;;;5079344;28;21050;-68
2022/12/14 11:16:28;;;;;;;27.33;25.00;;;2.80;99.90;;;;;;5079720;28;20467;-68
2022/12/14 11:18:59;;;;;;;28.87;25.97;;;;;;;;;;5075125;28;20466;-68
2022/12/14 11:21:30;;;;;;;28.40;24.63;;;;;;;;;;5085459;28;20494;-68
2022/12/14 11:23:58;;;;;;;29.27;26.47;;;3.00;99.90;;;;;;5087040;28;20947;-68
2022/12/14 11:26:31;;;;;;;26.30;24.10;;;3.00;99.90;;;;;;5085996;28;20472;-68
2022/12/14 11:29:00;;;;;;;26.93;24.40;;;3.00;99.90;;;;;;5086086;28;20456;-68
2022/12/14 11:31:32;;;;;;;27.40;24.90;;;3.00;99.90;;;;;;5087960;28;20462;-68
2022/12/14 11:34:01;;;;;;;27.63;24.90;;;3.00;99.90;;;;;;5085030;28;20884;-68
2022/12/14 11:36:30;;;;;;;32.17;24.73;;;;;;;;;;5085781;28;20459;-68
2022/12/14 11:38:58;;;;;;;26.57;24.07;;;;;;;;;;5075880;28;20475;-68
2022/12/14 11:41:31;;;;;;;27.30;24.60;;;4.50;99.90;;;;;;5078963;28;20517;-68
2022/12/14 11:44:04;;;;;;;27.73;25.13;;;5.60;99.90;;;;;;5077856;28;20467;-68
2022/12/14 11:46:42;;;;;;;26.00;23.20;;;;;;;;;;5084652;28;20465;-68
2022/12/14 11:49:25;;;;;;;26.90;24.37;;;;;;;;;;5089809;28;20450;-70
2022/12/14 11:51:59;;;;;;;26.13;23.50;;;;;;;;;;5080676;28;20465;-68
2022/12/14 11:54:27;;;;;;;31.33;24.73;;;;;;;;;;5078085;28;20825;-68
2022/12/14 11:56:58;;;;;;;27.53;24.80;;;;;;;;;;5079907;28;21029;-68
2022/12/14 11:59:28;;;;;;;26.43;24.30;;;7.00;99.90;;;;;;5085563;28;20528;-68
2022/12/14 12:01:56;;;;;;;25.83;23.70;;;7.00;99.90;;;;;;5087624;28;20489;-69
2022/12/14 12:04:23;;;;;;;26.70;24.03;;;;;;;;;;5082815;28;20484;-68
2022/12/14 12:06:50;;;;;;;26.77;24.07;;;;;;;;;;5075690;28;20555;-68
2022/12/14 12:09:30;;;;;;;25.90;23.83;;;7.80;99.90;;;;;;5077929;28;20973;-68
2022/12/14 12:11:58;;;;;;;27.67;25.17;;;;;;;;;;5089308;28;20829;-68
2022/12/14 12:14:29;;;;;;;28.20;25.13;;;;;;;;;;5082868;28;20988;-68
2022/12/14 12:16:56;;;;;;;28.67;25.93;;;;;;;;;;5079778;28;20466;-68
2022/12/14 12:19:25;;;;;;;27.70;24.40;;;;;;;;;;5079835;28;20493;-68
2022/12/14 12:21:54;;;;;;;26.37;24.23;;;;;;;;;;5081478;28;20486;-69
2022/12/14 12:24:22;;;;;;;27.33;24.80;;;;;;;;;;5081466;28;20493;-68
2022/12/14 12:26:51;;;;;;;30.93;24.97;;;;;;;;;;5076533;28;20533;-69
2022/12/14 12:29:24;;;;;;;28.33;25.33;;;;;;;;;;5087906;28;20476;-69
2022/12/14 12:31:55;;;;;;;27.70;25.10;;;;;;;;;;5085350;28;20468;-68
2022/12/14 12:34:25;;;;;;;25.97;23.70;;;;;;;;;;5081873;28;20454;-68
2022/12/14 12:36:53;;;;;;;26.83;24.40;;;;;;;;;;5086677;28;21050;-68
2022/12/14 12:39:24;;;;;;;25.40;23.10;;;;;;;;;;5080049;28;21299;-68
2022/12/14 12:41:53;;;;;;;26.53;24.23;;;;;;;;;;5086621;28;20489;-69
2022/12/14 12:44:25;;;;;;;26.60;24.00;;;;;;;;;;5080495;28;20556;-68
2022/12/14 12:46:57;;;;;;;27.23;24.40;;;;;;;;;;5085711;28;20454;-68
2022/12/14 12:49:24;;;;;;;25.77;23.50;;;;;;;;;;5078952;28;20468;-69
2022/12/14 12:51:53;;;;;;;27.23;24.77;;;7.60;99.90;;;;;;5075771;28;20813;-69
2022/12/14 12:54:25;;;;;;;28.20;25.53;;;7.70;98.00;;;;;;5081117;28;20558;-69
2022/12/14 12:56:56;;;;;;;29.47;26.57;;;7.80;96.90;;;;;;5075075;28;20471;-69
2022/12/14 12:59:33;;;;;;;31.43;23.50;;;7.00;97.30;;;;;;5083349;28;21181;-68
2022/12/14 13:02:11;;;;;;;24.63;22.60;;;7.10;97.80;;;;;;5086208;28;20496;-68
2022/12/14 13:04:40;;;;;;;26.57;23.67;;;6.90;98.10;;;;;;5086867;28;20485;-68
2022/12/14 13:07:16;;;;;;;26.47;24.20;;;7.10;98.70;;;;;;5087906;28;20472;-68
2022/12/14 13:09:46;;;;;;;27.20;24.50;;;;;;;;;;5090105;28;20461;-68
2022/12/14 13:12:16;;;;;;;28.20;25.37;;;;;;;;;;5086997;28;20466;-68
2022/12/14 13:14:46;;;;;;;26.73;24.23;;;7.60;98.10;;;;;;5080847;28;20458;-70
2022/12/14 13:17:18;;;;;;;27.80;25.00;;;;;;;;;;5081743;28;20474;-68
2022/12/14 13:19:48;;;;;;;30.73;27.70;;;;;;;;;;5081273;28;20856;-68
2022/12/14 13:22:17;;;;;;;28.73;26.13;;;;;;;;;;5084600;28;20551;-68
2022/12/14 13:24:45;;;;;;;26.70;24.17;;;;;;;;;;5081574;28;20465;-68
2022/12/14 13:27:35;;;;;;;27.30;24.60;;;;;;;;;;5074227;28;20462;-68
2022/12/14 13:30:29;;;;;;;27.30;25.00;;;8.10;96.90;;;;;;5075508;28;20556;-68